createdAt,value
2023-02-22T00:01:19.194Z,58.00
2023-02-22T00:03:51.585Z,58.00
2023-02-22T00:06:25.179Z,58.20
2023-02-22T00:16:23.785Z,59.40
2023-02-22T00:26:22.123Z,59.10
2023-02-22T00:28:52.534Z,59.30
2023-02-22T00:31:22.911Z,59.50
2023-02-22T00:46:15.362Z,59.10
2023-02-22T00:48:44.923Z,58.40
2023-02-22T01:06:05.939Z,58.00
2023-02-22T01:23:31.234Z,58.40
2023-02-22T01:40:54.753Z,58.60
2023-02-22T01:43:25.941Z,58.40
2023-02-22T01:46:01.147Z,58.80
2023-02-22T01:48:37.248Z,59.60
2023-02-22T01:51:10.763Z,59.60
2023-02-22T01:53:44.358Z,59.80
2023-02-22T01:56:17.273Z,59.90
2023-02-22T01:58:49.762Z,59.80
2023-02-22T02:01:21.083Z,60.00
2023-02-22T02:06:20.106Z,60.00
2023-02-22T02:08:56.124Z,60.20
2023-02-22T02:11:27.285Z,60.20
2023-02-22T02:16:36.534Z,60.70
2023-02-22T02:19:10.543Z,62.20
2023-02-22T02:21:56.676Z,60.90
2023-02-22T02:25:18.804Z,60.70
2023-02-22T02:28:10.526Z,60.80
2023-02-22T02:30:51.981Z,60.80
2023-02-22T02:33:25.816Z,61.10
2023-02-22T02:36:02.675Z,61.50
2023-02-22T02:38:35.395Z,61.50
2023-02-22T02:41:11.757Z,61.50
2023-02-22T02:43:45.060Z,61.30
2023-02-22T02:46:18.410Z,61.50
2023-02-22T02:48:54.819Z,61.10
2023-02-22T02:51:26.887Z,60.90
2023-02-22T02:53:56.561Z,60.80
2023-02-22T02:58:55.637Z,60.80
2023-02-22T03:01:51.116Z,60.90
2023-02-22T03:04:33.506Z,61.20
2023-02-22T03:07:22.669Z,60.90
2023-02-22T03:10:00.891Z,60.80
2023-02-22T03:12:41.524Z,60.50
2023-02-22T03:15:21.961Z,60.60
2023-02-22T03:17:57.100Z,60.60
2023-02-22T03:20:32.574Z,60.20
2023-02-22T03:23:09.968Z,60.80
2023-02-22T03:25:43.902Z,60.80
2023-02-22T03:28:16.565Z,61.10
2023-02-22T03:30:50.093Z,61.00
2023-02-22T03:33:28.038Z,61.10
2023-02-22T03:36:02.761Z,60.70
2023-02-22T03:38:34.348Z,60.80
2023-02-22T03:41:03.817Z,61.10
2023-02-22T03:43:37.761Z,60.60
2023-02-22T03:46:16.541Z,61.60
2023-02-22T03:48:54.284Z,61.80
2023-02-22T03:51:25.708Z,61.50
2023-02-22T03:56:38.665Z,62.30
2023-02-22T03:59:10.991Z,62.20
2023-02-22T04:06:39.738Z,62.90
2023-02-22T04:24:02.814Z,61.70
2023-02-22T04:26:33.955Z,62.00
2023-02-22T04:29:05.324Z,61.40
2023-02-22T04:39:12.549Z,61.50
2023-02-22T04:56:42.743Z,63.00
2023-02-22T05:14:04.840Z,63.80
2023-02-22T05:31:25.291Z,63.40
2023-02-22T05:46:16.466Z,64.10
2023-02-22T05:48:45.855Z,63.40
2023-02-22T06:01:16.627Z,63.20
2023-02-22T06:03:48.291Z,63.00
2023-02-22T06:08:45.556Z,63.10
2023-02-22T06:11:14.534Z,63.20
2023-02-22T06:21:09.999Z,62.90
2023-02-22T06:38:30.581Z,63.50
2023-02-22T06:48:24.645Z,63.30
2023-02-22T06:55:55.095Z,64.20
2023-02-22T07:13:15.445Z,64.70
2023-02-22T07:30:37.593Z,64.40
2023-02-22T07:33:08.317Z,64.20
2023-02-22T07:35:37.825Z,64.60
2023-02-22T07:38:08.057Z,64.70
2023-02-22T07:40:37.540Z,64.70
2023-02-22T07:43:11.703Z,64.90
2023-02-22T07:45:41.257Z,64.50
2023-02-22T07:48:10.174Z,64.50
2023-02-22T07:53:11.869Z,65.20
2023-02-22T07:58:10.263Z,64.00
2023-02-22T08:00:41.175Z,64.40
2023-02-22T08:03:12.478Z,64.40
2023-02-22T08:05:42.633Z,64.50
2023-02-22T08:15:38.209Z,65.40
2023-02-22T08:18:09.710Z,66.10
2023-02-22T08:20:38.739Z,66.00
2023-02-22T08:23:08.063Z,66.70
2023-02-22T08:25:38.443Z,94.80
2023-02-22T08:28:08.600Z,65.50
2023-02-22T08:30:40.389Z,64.50
2023-02-22T08:33:10.722Z,65.00
2023-02-22T08:40:39.351Z,65.10
2023-02-22T08:50:35.584Z,64.70
2023-02-22T08:53:05.596Z,65.20
2023-02-22T08:55:35.878Z,64.10
2023-02-22T08:58:05.431Z,64.20
2023-02-22T09:00:34.990Z,64.30
2023-02-22T09:05:32.600Z,64.60
2023-02-22T09:08:02.460Z,64.70
2023-02-22T09:10:32.971Z,64.90
2023-02-22T09:15:31.560Z,64.60
2023-02-22T09:25:27.394Z,64.50
2023-02-22T09:30:26.652Z,64.60
2023-02-22T09:32:56.438Z,93.80
2023-02-22T09:35:27.265Z,63.20
2023-02-22T09:37:56.591Z,63.90
2023-02-22T09:40:30.173Z,62.00
2023-02-22T09:43:09.050Z,62.00
2023-02-22T09:45:45.002Z,61.20
2023-02-22T09:48:22.108Z,59.50
2023-02-22T09:50:53.723Z,58.30
2023-02-22T09:53:29.699Z,58.20
2023-02-22T09:56:03.746Z,57.50
2023-02-22T09:58:37.550Z,56.30
2023-02-22T10:01:17.739Z,55.50
2023-02-22T10:03:53.189Z,54.00
2023-02-22T10:06:24.505Z,54.00
2023-02-22T10:08:57.076Z,52.80
2023-02-22T10:11:41.155Z,52.40
2023-02-22T10:14:47.222Z,54.20
2023-02-22T10:17:27.477Z,52.00
2023-02-22T10:20:08.877Z,52.80
2023-02-22T10:22:46.176Z,52.10
2023-02-22T10:25:19.319Z,50.80
2023-02-22T10:27:57.045Z,50.10
2023-02-22T10:30:34.003Z,48.10
2023-02-22T10:33:11.456Z,49.20
2023-02-22T10:35:41.870Z,49.10
2023-02-22T10:38:17.810Z,52.00
2023-02-22T10:40:51.402Z,47.10
2023-02-22T10:43:21.008Z,45.70
2023-02-22T10:48:19.857Z,44.60
2023-02-22T10:50:50.555Z,45.00
2023-02-22T10:56:13.958Z,67.40
2023-02-22T10:58:50.302Z,44.20
2023-02-22T11:01:23.538Z,43.50
2023-02-22T11:04:00.084Z,43.40
2023-02-22T11:06:28.935Z,41.60
2023-02-22T11:09:06.615Z,42.80
2023-02-22T11:14:06.743Z,43.20
2023-02-22T11:16:38.209Z,42.80
2023-02-22T11:19:20.463Z,74.80
2023-02-22T11:24:21.115Z,41.80
2023-02-22T11:26:51.808Z,41.10
2023-02-22T11:29:26.626Z,41.20
2023-02-22T11:31:56.353Z,40.30
2023-02-22T11:34:34.885Z,39.40
2023-02-22T11:37:29.299Z,67.90
2023-02-22T11:40:12.353Z,68.50
2023-02-22T11:45:17.175Z,47.60
2023-02-22T11:47:52.914Z,67.80
2023-02-22T11:50:28.855Z,39.60
2023-02-22T11:53:15.029Z,40.10
2023-02-22T11:55:54.323Z,63.40
2023-02-22T11:58:34.851Z,37.30
2023-02-22T12:01:12.068Z,36.80
2023-02-22T12:04:06.049Z,36.70
2023-02-22T12:06:45.120Z,36.00
2023-02-22T12:09:19.410Z,34.40
2023-02-22T12:11:58.338Z,35.20
2023-02-22T12:14:37.319Z,35.40
2023-02-22T12:17:23.809Z,34.70
2023-02-22T12:19:55.644Z,33.50
2023-02-22T12:22:28.375Z,34.70
2023-02-22T12:25:09.044Z,34.20
2023-02-22T12:27:42.305Z,33.40
2023-02-22T12:30:16.993Z,59.10
2023-02-22T12:32:50.677Z,32.20
2023-02-22T12:35:24.475Z,32.10
2023-02-22T12:38:04.616Z,31.20
2023-02-22T12:40:39.152Z,55.40
2023-02-22T12:43:16.624Z,30.10
2023-02-22T12:45:50.243Z,30.60
2023-02-22T12:48:31.516Z,30.70
2023-02-22T12:51:05.146Z,31.10
2023-02-22T12:53:37.254Z,31.40
2023-02-22T12:56:17.389Z,49.60
2023-02-22T12:58:50.926Z,30.60
2023-02-22T13:01:22.933Z,56.60
2023-02-22T13:03:55.755Z,30.90
2023-02-22T13:06:43.405Z,30.30
2023-02-22T13:09:30.888Z,30.60
2023-02-22T13:12:06.673Z,31.10
2023-02-22T13:14:45.798Z,31.00
2023-02-22T13:17:22.738Z,30.50
2023-02-22T13:19:59.032Z,31.20
2023-02-22T13:22:34.556Z,31.30
2023-02-22T13:25:11.848Z,31.70
2023-02-22T13:27:44.525Z,32.00
2023-02-22T13:30:21.364Z,32.00
2023-02-22T13:33:23.467Z,58.90
2023-02-22T13:36:15.283Z,32.00
2023-02-22T13:39:20.562Z,57.60
2023-02-22T13:41:59.466Z,32.20
2023-02-22T13:45:00.194Z,31.40
2023-02-22T13:47:57.786Z,31.10
2023-02-22T13:50:52.146Z,31.40
2023-02-22T13:53:29.427Z,31.30
2023-02-22T13:56:01.004Z,32.30
2023-02-22T14:00:59.204Z,35.10
2023-02-22T14:03:36.311Z,56.20
2023-02-22T14:06:06.350Z,60.10
2023-02-22T14:08:46.059Z,60.10
2023-02-22T14:11:46.535Z,50.30
2023-02-22T14:14:19.262Z,34.30
2023-02-22T14:17:23.961Z,32.80
2023-02-22T14:20:04.464Z,32.60
2023-02-22T14:22:33.885Z,33.00
2023-02-22T14:25:03.750Z,33.20
2023-02-22T14:27:41.218Z,33.10
2023-02-22T14:30:26.260Z,34.00
2023-02-22T14:35:28.590Z,33.60
2023-02-22T14:38:01.679Z,33.80
2023-02-22T14:40:33.557Z,33.90
2023-02-22T14:43:04.369Z,34.40
2023-02-22T14:45:34.782Z,34.20
2023-02-22T14:48:13.651Z,34.50
2023-02-22T14:50:47.968Z,34.60
2023-02-22T14:53:25.460Z,34.60
2023-02-22T14:56:02.415Z,35.00
2023-02-22T14:59:11.601Z,34.90
2023-02-22T15:04:27.441Z,35.60
2023-02-22T15:06:57.372Z,35.10
2023-02-22T15:09:30.227Z,35.00
2023-02-22T15:12:18.294Z,35.10
2023-02-22T15:17:20.795Z,63.60
2023-02-22T15:19:49.807Z,35.10
2023-02-22T15:22:23.226Z,34.00
2023-02-22T15:25:00.177Z,35.50
2023-02-22T15:27:30.202Z,35.10
2023-02-22T15:30:04.593Z,35.60
2023-02-22T15:32:49.858Z,36.40
2023-02-22T15:35:29.528Z,37.10
2023-02-22T15:38:02.965Z,66.80
2023-02-22T15:43:04.616Z,38.60
2023-02-22T15:48:03.327Z,39.20
2023-02-22T15:50:33.831Z,39.10
2023-02-22T15:53:07.428Z,39.40
2023-02-22T15:55:37.987Z,39.60
2023-02-22T15:58:12.359Z,39.80
2023-02-22T16:00:42.925Z,40.10
2023-02-22T16:03:13.628Z,40.20
2023-02-22T16:05:45.690Z,40.20
2023-02-22T16:08:18.104Z,40.00
2023-02-22T16:10:53.847Z,40.20
2023-02-22T16:13:32.092Z,40.70
2023-02-22T16:16:03.043Z,40.30
2023-02-22T16:18:33.758Z,40.90
2023-02-22T16:21:06.457Z,64.30
2023-02-22T16:23:45.592Z,40.70
2023-02-22T16:26:27.625Z,41.10
2023-02-22T16:28:59.074Z,41.10
2023-02-22T16:31:29.889Z,41.20
2023-02-22T16:36:39.906Z,41.40
2023-02-22T16:39:09.533Z,41.30
2023-02-22T16:41:37.963Z,64.90
2023-02-22T16:45:10.245Z,41.40
2023-02-22T16:52:41.547Z,41.90
2023-02-22T16:55:12.476Z,42.20
2023-02-22T16:57:42.698Z,42.30
2023-02-22T17:00:17.197Z,42.30
2023-02-22T17:05:16.470Z,72.40
2023-02-22T17:10:17.889Z,44.70
2023-02-22T17:12:51.308Z,45.50
2023-02-22T17:15:30.236Z,46.10
2023-02-22T17:20:31.014Z,46.80
2023-02-22T17:23:00.542Z,47.40
2023-02-22T17:25:32.149Z,47.40
2023-02-22T17:30:31.336Z,48.10
2023-02-22T17:33:03.658Z,48.30
2023-02-22T17:35:36.623Z,48.60
2023-02-22T17:38:06.420Z,48.80
2023-02-22T17:45:33.527Z,49.20
2023-02-22T17:57:59.237Z,50.00
2023-02-22T18:00:34.044Z,50.20
2023-02-22T18:03:06.595Z,50.40
2023-02-22T18:08:29.109Z,51.30
2023-02-22T18:13:34.844Z,50.60
2023-02-22T18:16:05.713Z,79.70
2023-02-22T18:18:39.285Z,51.00
2023-02-22T18:21:08.616Z,51.00
2023-02-22T18:23:54.098Z,51.20
2023-02-22T18:26:25.804Z,51.20
2023-02-22T18:31:25.496Z,51.60
2023-02-22T18:33:55.081Z,51.20
2023-02-22T18:36:26.910Z,51.20
2023-02-22T18:41:26.318Z,51.60
2023-02-22T18:46:26.438Z,51.60
2023-02-22T18:48:57.416Z,51.70
2023-02-22T18:51:26.911Z,51.90
2023-02-22T18:54:02.157Z,51.80
2023-02-22T18:56:31.393Z,52.10
2023-02-22T18:59:01.863Z,52.10
2023-02-22T19:01:35.800Z,52.00
2023-02-22T19:04:19.261Z,52.20
2023-02-22T19:09:24.531Z,52.60
2023-02-22T19:16:52.933Z,54.30
2023-02-22T19:19:26.745Z,52.60
2023-02-22T19:32:17.001Z,51.80
2023-02-22T19:35:02.140Z,52.00
2023-02-22T19:40:06.697Z,55.40
2023-02-22T19:50:08.819Z,52.40
2023-02-22T19:55:12.639Z,53.60
2023-02-22T20:00:24.348Z,54.20
2023-02-22T20:03:05.761Z,53.20
2023-02-22T20:05:39.680Z,52.90
2023-02-22T20:10:39.481Z,57.90
2023-02-22T20:20:36.960Z,53.50
2023-02-22T20:35:43.624Z,54.20
2023-02-22T20:53:10.400Z,54.80
2023-02-22T20:55:40.508Z,59.60
2023-02-22T21:05:34.756Z,85.90
2023-02-22T21:10:41.432Z,55.90
2023-02-22T21:15:43.482Z,55.80
2023-02-22T21:18:12.198Z,56.20
2023-02-22T21:20:43.335Z,56.40
2023-02-22T21:23:12.184Z,56.50
2023-02-22T21:25:50.293Z,56.40
2023-02-22T21:33:16.986Z,56.20
2023-02-22T21:40:47.180Z,57.90
2023-02-22T21:58:10.870Z,56.60
2023-02-22T22:03:20.159Z,56.80
2023-02-22T22:05:49.122Z,56.90
2023-02-22T22:08:20.283Z,56.80
2023-02-22T22:10:55.290Z,56.60
2023-02-22T22:13:28.106Z,56.80
2023-02-22T22:30:50.243Z,57.90
2023-02-22T22:48:18.117Z,58.00
2023-02-22T23:03:18.548Z,58.00
2023-02-22T23:13:15.648Z,58.60
2023-02-22T23:15:47.704Z,58.70
2023-02-22T23:18:20.645Z,58.90
2023-02-22T23:20:55.310Z,59.40
2023-02-22T23:23:27.628Z,58.90
2023-02-22T23:26:11.515Z,58.90
2023-02-22T23:28:41.399Z,59.40
2023-02-22T23:31:11.075Z,59.30
2023-02-22T23:33:40.981Z,59.30
2023-02-22T23:41:10.112Z,59.40
2023-02-22T23:46:11.729Z,59.40
2023-02-22T23:48:46.612Z,59.60
2023-02-22T23:51:18.706Z,59.50
2023-02-22T23:56:17.828Z,59.70
